createdAt,value
2023-04-14T00:01:42.030Z,8.13
2023-04-14T00:04:45.492Z,8.19
2023-04-14T00:07:48.794Z,8.24
2023-04-14T00:10:51.809Z,8.27
2023-04-14T00:13:56.707Z,8.28
2023-04-14T00:16:59.952Z,8.29
2023-04-14T00:20:04.379Z,8.25
2023-04-14T00:23:07.515Z,8.22
2023-04-14T00:26:10.660Z,8.17
2023-04-14T00:29:18.778Z,8.17
2023-04-14T00:32:21.957Z,8.14
2023-04-14T00:35:25.284Z,8.11
2023-04-14T00:38:28.237Z,8.08
2023-04-14T00:41:34.961Z,8.07
2023-04-14T00:44:39.354Z,8.09
2023-04-14T00:47:46.956Z,8.06
2023-04-14T00:50:50.685Z,8.08
2023-04-14T00:53:55.130Z,8.10
2023-04-14T00:56:58.272Z,8.11
2023-04-14T01:00:05.331Z,8.15
2023-04-14T01:03:09.144Z,8.22
2023-04-14T01:06:12.642Z,8.22
2023-04-14T01:09:16.704Z,8.25
2023-04-14T01:12:36.511Z,8.28
2023-04-14T01:15:48.581Z,8.28
2023-04-14T01:19:01.966Z,8.30
2023-04-14T01:22:10.943Z,8.34
2023-04-14T01:26:08.866Z,8.39
2023-04-14T01:29:43.827Z,8.43
2023-04-14T01:32:50.769Z,8.44
2023-04-14T01:35:58.176Z,8.50
2023-04-14T01:39:07.316Z,8.51
2023-04-14T01:42:15.895Z,8.52
2023-04-14T01:45:24.696Z,8.51
2023-04-14T01:48:30.766Z,8.55
2023-04-14T01:51:35.958Z,8.52
2023-04-14T01:54:42.355Z,8.54
2023-04-14T01:57:50.828Z,8.51
2023-04-14T02:00:56.071Z,8.49
2023-04-14T02:04:02.709Z,8.49
2023-04-14T02:07:07.258Z,8.55
2023-04-14T02:10:12.092Z,8.54
2023-04-14T02:13:20.780Z,8.53
2023-04-14T02:16:27.501Z,8.55
2023-04-14T02:19:32.661Z,8.58
2023-04-14T02:22:38.502Z,8.54
2023-04-14T02:25:48.388Z,8.47
2023-04-14T02:28:56.686Z,8.49
2023-04-14T02:32:09.920Z,8.53
2023-04-14T02:35:21.708Z,8.57
2023-04-14T02:38:37.723Z,8.52
2023-04-14T02:41:44.540Z,8.51
2023-04-14T02:44:52.505Z,8.50
2023-04-14T02:47:59.581Z,8.51
2023-04-14T02:51:07.032Z,8.51
2023-04-14T02:54:12.609Z,8.53
2023-04-14T02:57:20.582Z,8.51
2023-04-14T03:00:30.464Z,8.45
2023-04-14T03:03:37.392Z,8.45
2023-04-14T03:06:45.524Z,8.44
2023-04-14T03:09:51.431Z,8.39
2023-04-14T03:12:56.887Z,8.41
2023-04-14T03:16:01.028Z,8.44
2023-04-14T03:19:05.635Z,8.35
2023-04-14T03:22:14.682Z,8.36
2023-04-14T03:25:18.184Z,8.44
2023-04-14T03:28:29.109Z,8.45
2023-04-14T03:31:37.591Z,8.48
2023-04-14T03:34:46.467Z,8.47
2023-04-14T03:37:54.750Z,8.50
2023-04-14T03:41:01.474Z,8.48
2023-04-14T03:44:07.197Z,8.45
2023-04-14T03:47:11.202Z,8.40
2023-04-14T03:50:16.794Z,8.41
2023-04-14T03:53:22.622Z,8.47
2023-04-14T03:56:28.075Z,8.49
2023-04-14T03:59:33.538Z,8.49
2023-04-14T04:02:38.294Z,8.48
2023-04-14T04:05:43.645Z,8.47
2023-04-14T04:08:50.772Z,8.48
2023-04-14T04:11:54.902Z,8.47
2023-04-14T04:14:59.027Z,8.53
2023-04-14T04:18:04.626Z,8.51
2023-04-14T04:21:08.419Z,8.51
2023-04-14T04:24:14.432Z,8.47
2023-04-14T04:27:27.799Z,8.37
2023-04-14T04:30:41.653Z,8.40
2023-04-14T04:33:48.693Z,8.40
2023-04-14T04:36:52.319Z,8.38
2023-04-14T04:39:58.903Z,8.38
2023-04-14T04:43:03.200Z,8.43
2023-04-14T04:46:24.099Z,8.47
2023-04-14T04:49:28.589Z,8.48
2023-04-14T04:52:37.203Z,8.49
2023-04-14T04:55:41.849Z,8.51
2023-04-14T04:58:44.853Z,8.45
2023-04-14T05:01:48.316Z,8.53
2023-04-14T05:04:51.633Z,8.47
2023-04-14T05:07:54.634Z,8.51
2023-04-14T05:10:59.033Z,8.51
2023-04-14T05:14:02.566Z,8.56
2023-04-14T05:17:05.667Z,8.58
2023-04-14T05:20:09.806Z,8.56
2023-04-14T05:23:29.787Z,8.61
2023-04-14T05:27:14.342Z,8.67
2023-04-14T05:30:17.696Z,8.64
2023-04-14T05:33:20.744Z,8.65
2023-04-14T05:36:23.719Z,8.67
2023-04-14T05:39:27.104Z,8.70
2023-04-14T05:42:31.520Z,8.67
2023-04-14T05:45:34.551Z,8.71
2023-04-14T05:48:38.135Z,8.71
2023-04-14T05:51:41.160Z,8.70
2023-04-14T05:54:44.278Z,8.73
2023-04-14T05:57:48.705Z,8.77
2023-04-14T06:00:51.641Z,8.73
2023-04-14T06:03:54.932Z,8.79
2023-04-14T06:06:59.005Z,8.73
2023-04-14T06:10:02.257Z,8.62
2023-04-14T06:13:09.536Z,8.63
2023-04-14T06:16:12.673Z,8.66
2023-04-14T06:19:15.700Z,8.72
2023-04-14T06:22:19.977Z,8.71
2023-04-14T06:25:23.011Z,8.67
2023-04-14T06:28:27.324Z,8.74
2023-04-14T06:31:30.305Z,8.64
2023-04-14T06:34:34.415Z,8.72
2023-04-14T06:37:37.374Z,8.71
2023-04-14T06:40:40.460Z,8.86
2023-04-14T06:43:44.947Z,8.82
2023-04-14T06:46:47.872Z,8.84
2023-04-14T06:49:51.270Z,8.95
2023-04-14T06:52:54.362Z,8.89
2023-04-14T06:56:00.623Z,8.82
2023-04-14T06:59:05.138Z,8.88
2023-04-14T07:02:28.600Z,8.82
2023-04-14T07:05:50.091Z,8.93
2023-04-14T07:08:54.112Z,8.90
2023-04-14T07:11:58.414Z,8.88
2023-04-14T07:15:03.109Z,8.92
2023-04-14T07:18:07.326Z,8.88
2023-04-14T07:21:10.375Z,8.96
2023-04-14T07:24:15.351Z,9.06
2023-04-14T07:27:18.675Z,9.09
2023-04-14T07:30:23.604Z,9.00
2023-04-14T07:33:30.338Z,8.81
2023-04-14T07:36:33.462Z,8.82
2023-04-14T07:39:36.427Z,8.86
2023-04-14T07:42:39.360Z,8.96
2023-04-14T07:45:44.007Z,8.86
2023-04-14T07:48:47.154Z,8.96
2023-04-14T07:51:52.477Z,8.87
2023-04-14T07:54:56.120Z,8.94
2023-04-14T07:57:59.288Z,8.76
2023-04-14T08:01:04.312Z,8.77
2023-04-14T08:04:07.662Z,8.66
2023-04-14T08:07:10.980Z,8.69
2023-04-14T08:10:13.945Z,8.61
2023-04-14T08:13:16.919Z,8.59
2023-04-14T08:16:21.304Z,8.57
2023-04-14T08:19:24.286Z,8.59
2023-04-14T08:22:27.293Z,8.50
2023-04-14T08:25:31.819Z,8.51
2023-04-14T08:28:37.078Z,8.48
2023-04-14T08:31:43.878Z,8.53
2023-04-14T08:35:39.472Z,8.51
2023-04-14T08:38:11.115Z,8.57
2023-04-14T08:41:15.686Z,8.55
2023-04-14T08:44:18.709Z,8.60
2023-04-14T08:47:23.859Z,8.65
2023-04-14T08:50:29.849Z,8.63
2023-04-14T08:53:34.968Z,8.77
2023-04-14T08:56:42.387Z,8.75
2023-04-14T08:59:45.912Z,8.73
2023-04-14T09:02:51.760Z,8.73
2023-04-14T09:05:55.296Z,8.77
2023-04-14T09:09:03.719Z,8.83
2023-04-14T09:12:09.559Z,8.70
2023-04-14T09:15:13.938Z,8.56
2023-04-14T09:18:18.305Z,8.55
2023-04-14T09:21:32.954Z,8.54
2023-04-14T09:24:44.867Z,8.43
2023-04-14T09:27:49.764Z,8.54
2023-04-14T09:30:53.455Z,8.58
2023-04-14T09:33:58.126Z,8.64
2023-04-14T09:37:04.440Z,8.57
2023-04-14T09:40:09.507Z,8.54
2023-04-14T09:43:26.786Z,8.55
2023-04-14T09:46:29.808Z,8.54
2023-04-14T09:49:35.478Z,8.57
2023-04-14T09:52:40.977Z,8.68
2023-04-14T09:55:52.174Z,8.70
2023-04-14T09:59:00.384Z,8.63
2023-04-14T10:02:07.421Z,8.70
2023-04-14T10:05:11.911Z,8.70
2023-04-14T10:08:15.014Z,8.67
2023-04-14T10:11:20.485Z,8.73
2023-04-14T10:14:23.508Z,8.91
2023-04-14T10:17:29.499Z,8.91
2023-04-14T10:20:37.825Z,8.91
2023-04-14T10:23:42.388Z,8.76
2023-04-14T10:26:47.258Z,8.77
2023-04-14T10:29:50.676Z,8.82
2023-04-14T10:32:53.939Z,8.83
2023-04-14T10:36:01.903Z,8.78
2023-04-14T10:39:06.492Z,8.78
2023-04-14T10:42:10.327Z,8.62
2023-04-14T10:45:15.751Z,8.62
2023-04-14T10:48:18.761Z,8.73
2023-04-14T10:51:36.246Z,8.77
2023-04-14T10:54:55.068Z,8.80
2023-04-14T10:58:06.022Z,8.73
2023-04-14T11:01:26.658Z,8.79
2023-04-14T11:04:29.822Z,8.68
2023-04-14T11:07:40.380Z,8.65
2023-04-14T11:10:51.010Z,8.52
2023-04-14T11:14:11.961Z,8.50
2023-04-14T11:17:22.959Z,8.56
2023-04-14T11:20:28.744Z,8.51
2023-04-14T11:23:33.977Z,8.47
2023-04-14T11:26:47.391Z,8.48
2023-04-14T11:29:51.260Z,8.61
2023-04-14T11:32:57.241Z,8.47
2023-04-14T11:36:00.717Z,8.52
2023-04-14T11:39:05.175Z,8.56
2023-04-14T11:42:08.184Z,8.62
2023-04-14T11:45:15.298Z,8.70
2023-04-14T11:48:20.392Z,8.75
2023-04-14T11:51:30.438Z,8.72
2023-04-14T11:54:38.263Z,8.88
2023-04-14T11:57:48.483Z,8.77
2023-04-14T12:00:55.492Z,8.74
2023-04-14T12:04:00.163Z,8.68
2023-04-14T12:07:03.500Z,8.65
2023-04-14T12:10:17.775Z,8.60
2023-04-14T12:13:21.368Z,8.62
2023-04-14T12:16:24.857Z,8.44
2023-04-14T12:19:27.911Z,8.51
2023-04-14T12:22:31.366Z,8.35
2023-04-14T12:25:35.882Z,8.21
2023-04-14T12:28:41.440Z,8.16
2023-04-14T12:31:45.121Z,8.25
2023-04-14T12:34:57.520Z,8.33
2023-04-14T12:38:00.524Z,8.33
2023-04-14T12:41:06.626Z,8.37
2023-04-14T12:44:24.343Z,8.40
2023-04-14T12:47:29.732Z,8.34
2023-04-14T12:50:33.472Z,8.35
2023-04-14T12:53:41.323Z,8.45
2023-04-14T12:56:45.917Z,8.35
2023-04-14T12:59:49.289Z,8.47
2023-04-14T13:02:52.797Z,8.44
2023-04-14T13:05:56.309Z,8.41
2023-04-14T13:09:00.305Z,8.49
2023-04-14T13:12:04.948Z,8.53
2023-04-14T13:16:09.072Z,8.53
2023-04-14T13:18:35.344Z,8.47
2023-04-14T13:21:39.104Z,8.51
2023-04-14T13:24:42.332Z,8.54
2023-04-14T13:27:47.901Z,8.48
2023-04-14T13:30:54.642Z,8.58
2023-04-14T13:33:57.636Z,8.58
2023-04-14T13:37:00.698Z,8.53
2023-04-14T13:40:07.765Z,8.45
2023-04-14T13:43:16.726Z,8.52
2023-04-14T13:46:23.886Z,8.54
2023-04-14T13:49:27.307Z,8.60
2023-04-14T13:52:30.637Z,8.61
2023-04-14T13:55:38.130Z,8.55
2023-04-14T13:58:42.483Z,8.45
2023-04-14T14:01:46.056Z,8.47
2023-04-14T14:04:49.121Z,8.39
2023-04-14T14:07:52.207Z,8.37
2023-04-14T14:10:55.461Z,8.42
2023-04-14T14:14:00.190Z,8.47
2023-04-14T14:17:06.312Z,8.57
2023-04-14T14:20:11.057Z,8.65
2023-04-14T14:23:15.707Z,8.74
2023-04-14T14:26:18.841Z,8.69
2023-04-14T14:29:23.095Z,8.63
2023-04-14T14:32:26.158Z,8.60
2023-04-14T14:35:29.106Z,8.66
2023-04-14T14:38:32.487Z,8.57
2023-04-14T14:41:44.033Z,8.57
2023-04-14T14:44:48.338Z,8.51
2023-04-14T14:47:51.720Z,8.52
2023-04-14T14:50:54.708Z,8.51
2023-04-14T14:54:08.807Z,8.52
2023-04-14T14:57:12.574Z,8.48
2023-04-14T15:00:17.524Z,8.39
2023-04-14T15:03:22.124Z,8.37
2023-04-14T15:06:25.894Z,8.29
2023-04-14T15:09:32.430Z,8.25
2023-04-14T15:12:38.363Z,8.34
2023-04-14T15:15:42.729Z,8.29
2023-04-14T15:18:45.977Z,8.29
2023-04-14T15:21:48.934Z,8.34
2023-04-14T15:24:51.915Z,8.39
2023-04-14T15:27:55.450Z,8.41
2023-04-14T15:30:59.712Z,8.43
2023-04-14T15:34:03.064Z,8.32
2023-04-14T15:37:06.205Z,8.31
2023-04-14T15:40:11.141Z,8.38
2023-04-14T15:43:16.119Z,8.31
2023-04-14T15:46:20.428Z,8.29
2023-04-14T15:49:27.041Z,8.27
2023-04-14T15:52:30.104Z,8.23
2023-04-14T15:55:35.128Z,8.32
2023-04-14T15:58:38.163Z,8.33
2023-04-14T16:01:42.502Z,8.37
2023-04-14T16:04:45.610Z,8.41
2023-04-14T16:07:48.704Z,8.40
2023-04-14T16:10:53.654Z,8.47
2023-04-14T16:13:56.792Z,8.36
2023-04-14T16:17:01.837Z,8.31
2023-04-14T16:20:08.433Z,8.36
2023-04-14T16:23:11.419Z,8.37
2023-04-14T16:26:16.897Z,8.33
2023-04-14T16:29:19.930Z,8.27
2023-04-14T16:32:24.834Z,8.28
2023-04-14T16:35:27.901Z,8.28
2023-04-14T16:38:31.139Z,8.26
2023-04-14T16:41:34.660Z,8.25
2023-04-14T16:44:39.493Z,8.28
2023-04-14T16:47:44.377Z,8.26
2023-04-14T16:50:48.628Z,8.27
2023-04-14T16:53:52.182Z,8.27
2023-04-14T16:56:55.484Z,8.29
2023-04-14T16:59:58.682Z,8.26
2023-04-14T17:03:04.213Z,8.30
2023-04-14T17:06:07.754Z,8.29
2023-04-14T17:09:11.016Z,8.30
2023-04-14T17:12:14.166Z,8.31
2023-04-14T17:15:18.452Z,8.25
2023-04-14T17:18:24.111Z,8.23
2023-04-14T17:21:27.349Z,8.25
2023-04-14T17:24:31.371Z,8.28
2023-04-14T17:27:34.329Z,8.28
2023-04-14T17:30:42.044Z,8.30
2023-04-14T17:33:47.557Z,8.33
2023-04-14T17:36:50.723Z,8.27
2023-04-14T17:39:56.017Z,8.28
2023-04-14T17:42:59.273Z,8.26
2023-04-14T17:46:02.302Z,8.25
2023-04-14T17:49:07.760Z,8.28
2023-04-14T17:52:12.592Z,8.30
2023-04-14T17:55:16.521Z,8.27
2023-04-14T17:58:20.266Z,8.32
2023-04-14T18:01:24.067Z,8.27
2023-04-14T18:04:28.884Z,8.31
2023-04-14T18:07:32.811Z,8.32
2023-04-14T18:10:36.162Z,8.25
2023-04-14T18:13:39.236Z,8.28
2023-04-14T18:16:42.342Z,8.23
2023-04-14T18:19:48.097Z,8.23
2023-04-14T18:22:57.521Z,8.20
2023-04-14T18:29:07.108Z,8.18
2023-04-14T18:32:10.096Z,8.18
2023-04-14T18:35:15.684Z,8.15
2023-04-14T18:38:19.444Z,8.15
2023-04-14T18:41:24.647Z,8.18
2023-04-14T18:44:27.681Z,8.15
2023-04-14T18:47:30.755Z,8.13
2023-04-14T18:50:36.055Z,8.13
2023-04-14T18:53:44.265Z,8.14
2023-04-14T18:56:47.215Z,8.15
2023-04-14T18:59:50.229Z,8.16
2023-04-14T19:02:53.218Z,8.16
2023-04-14T19:05:57.555Z,8.14
2023-04-14T19:09:01.100Z,8.16
2023-04-14T19:12:04.971Z,8.16
2023-04-14T19:15:09.691Z,8.18
2023-04-14T19:18:12.760Z,8.20
2023-04-14T19:21:17.286Z,8.20
2023-04-14T19:24:20.871Z,8.22
2023-04-14T19:27:23.900Z,8.27
2023-04-14T19:30:26.855Z,8.24
2023-04-14T19:33:29.796Z,8.28
2023-04-14T19:36:34.944Z,8.39
2023-04-14T19:39:38.042Z,8.40
2023-04-14T19:42:41.093Z,8.40
2023-04-14T19:45:52.006Z,8.38
2023-04-14T19:48:55.665Z,8.32
2023-04-14T19:51:59.966Z,8.35
2023-04-14T19:55:03.926Z,8.36
2023-04-14T19:58:07.456Z,8.35
2023-04-14T20:01:11.245Z,8.37
2023-04-14T20:04:14.889Z,8.43
2023-04-14T20:07:19.441Z,8.54
2023-04-14T20:10:22.658Z,8.61
2023-04-14T20:13:27.631Z,8.51
2023-04-14T20:16:30.674Z,8.57
2023-04-14T20:19:33.874Z,8.47
2023-04-14T20:22:38.120Z,8.54
2023-04-14T20:25:42.872Z,8.52
2023-04-14T20:28:47.503Z,8.42
2023-04-14T20:31:51.482Z,8.42
2023-04-14T20:34:57.410Z,8.42
2023-04-14T20:38:02.522Z,8.43
2023-04-14T20:41:05.803Z,8.41
2023-04-14T20:44:09.652Z,8.37
2023-04-14T20:47:12.950Z,8.41
2023-04-14T20:50:18.767Z,8.39
2023-04-14T20:53:27.133Z,8.38
2023-04-14T20:56:30.834Z,8.36
2023-04-14T20:59:34.151Z,8.42
2023-04-14T21:02:38.797Z,8.41
2023-04-14T21:05:42.185Z,8.40
2023-04-14T21:08:46.470Z,8.41
2023-04-14T21:11:49.453Z,8.42
2023-04-14T21:15:41.433Z,8.41
2023-04-14T21:18:36.360Z,8.45
2023-04-14T21:21:39.543Z,8.44
2023-04-14T21:24:46.532Z,8.47
2023-04-14T21:27:49.798Z,8.44
2023-04-14T21:30:55.731Z,8.42
2023-04-14T21:33:58.681Z,8.43
2023-04-14T21:37:01.801Z,8.43
2023-04-14T21:40:08.071Z,8.44
2023-04-14T21:43:11.203Z,8.41
2023-04-14T21:46:14.786Z,8.41
2023-04-14T21:49:17.871Z,8.42
2023-04-14T21:52:21.538Z,8.41
2023-04-14T21:55:25.768Z,8.43
2023-04-14T21:58:31.546Z,8.40
2023-04-14T22:01:39.200Z,8.39
2023-04-14T22:04:42.363Z,8.37
2023-04-14T22:07:46.413Z,8.38
2023-04-14T22:10:51.136Z,8.37
2023-04-14T22:13:55.426Z,8.36
2023-04-14T22:16:58.883Z,8.36
2023-04-14T22:20:06.010Z,8.37
2023-04-14T22:23:09.169Z,8.32
2023-04-14T22:26:14.078Z,8.35
2023-04-14T22:29:17.245Z,8.36
2023-04-14T22:32:21.869Z,8.35
2023-04-14T22:35:25.577Z,8.35
2023-04-14T22:38:28.684Z,8.31
2023-04-14T22:41:33.568Z,8.32
2023-04-14T22:44:38.839Z,8.34
2023-04-14T22:47:42.022Z,8.33
2023-04-14T22:50:45.250Z,8.33
2023-04-14T22:53:48.380Z,8.32
2023-04-14T22:56:53.711Z,8.32
2023-04-14T22:59:57.422Z,8.33
2023-04-14T23:03:03.329Z,8.36
2023-04-14T23:06:07.353Z,8.35
2023-04-14T23:09:10.942Z,8.33
2023-04-14T23:12:16.038Z,8.32
2023-04-14T23:15:20.144Z,8.33
2023-04-14T23:18:24.902Z,8.37
2023-04-14T23:21:28.567Z,8.36
2023-04-14T23:24:32.772Z,8.32
2023-04-14T23:27:37.282Z,8.38
2023-04-14T23:30:41.715Z,8.41
2023-04-14T23:33:45.308Z,8.43
2023-04-14T23:36:48.432Z,8.42
2023-04-14T23:39:51.501Z,8.48
2023-04-14T23:42:57.091Z,8.40
2023-04-14T23:46:00.274Z,8.41
2023-04-14T23:49:23.573Z,8.43
2023-04-14T23:52:27.610Z,8.39
2023-04-14T23:55:33.371Z,8.42
2023-04-14T23:58:38.147Z,8.47
